CSC3708 RKSI-ZGDY
Flight info
| Callsign | CSC3708 |
|---|---|
| Flight time | 3h 3m |
| Altitude | 32000 |
| Route | BOPTA2Y BOPTA Z51 BEDES Y711 PONIK A593 LAMEN/K0846F280 A593 AKARA/K0841S0840 A593 PUD/K0870S0980 A593 PK R343 EKIMU/K0865S1040 R343 MADUK W51 LEGIV W164 ADGOL W50 XSH W80 IDGAG A581 LIN LIN1A |
| Aircraft | A321/M-SDE3FGHIRWY/LB1 |
Departure
| Time | 2026-04-20 13:32 |
|---|---|
| Airport | Incheon International Airport (RKSI) |
Arrival
| Time | 2026-04-20 16:35 |
|---|---|
| Airport | Zhangjiajie Hehua International Airport (ZGDY) |
| Time | Latitude | Longitude | Altitude | Speed | Heading |
|---|---|---|---|---|---|
| 2026-04-20 12:47 | 37.44680 | 126.44711 | 33 ft | 0 kts | 101° |
| 2026-04-20 13:25 | 37.44685 | 126.44686 | 31 ft | 4 kts | 104° |
| 2026-04-20 13:25 | 37.44692 | 126.44653 | 30 ft | 4 kts | 110° |
| 2026-04-20 13:26 | 37.44703 | 126.44622 | 30 ft | 4 kts | 124° |
| 2026-04-20 13:26 | 37.44720 | 126.44601 | 30 ft | 4 kts | 173° |
| 2026-04-20 13:26 | 37.44727 | 126.44601 | 31 ft | 0 kts | 194° |
| 2026-04-20 13:29 | 37.44711 | 126.44593 | 32 ft | 10 kts | 206° |
| 2026-04-20 13:29 | 37.44652 | 126.44505 | 32 ft | 16 kts | 234° |
| 2026-04-20 13:29 | 37.44570 | 126.44358 | 31 ft | 21 kts | 235° |
| 2026-04-20 13:30 | 37.44494 | 126.44227 | 33 ft | 9 kts | 234° |
| 2026-04-20 13:30 | 37.44491 | 126.44221 | 33 ft | 0 kts | 234° |
| 2026-04-20 13:30 | 37.44479 | 126.44200 | 33 ft | 9 kts | 234° |
| 2026-04-20 13:31 | 37.44450 | 126.44116 | 33 ft | 10 kts | 269° |
| 2026-04-20 13:31 | 37.44485 | 126.44049 | 32 ft | 2 kts | 324° |
| 2026-04-20 13:31 | 37.44503 | 126.44032 | 33 ft | 11 kts | 324° |
| 2026-04-20 13:31 | 37.44769 | 126.43795 | 33 ft | 81 kts | 324° |
| 2026-04-20 13:32 | 37.45392 | 126.43239 | 33 ft | 137 kts | 324° |
| 2026-04-20 13:32 | 37.46301 | 126.42440 | 88 ft | 175 kts | 322° |
| 2026-04-20 13:32 | 37.47268 | 126.41581 | 854 ft | 167 kts | 318° |
| 2026-04-20 13:32 | 37.48056 | 126.40506 | 1476 ft | 172 kts | 309° |
| 2026-04-20 13:33 | 37.48860 | 126.39276 | 1659 ft | 193 kts | 308° |
| 2026-04-20 13:33 | 37.49756 | 126.37890 | 1950 ft | 210 kts | 307° |
| 2026-04-20 13:33 | 37.50383 | 126.36225 | 2546 ft | 218 kts | 284° |
| 2026-04-20 13:33 | 37.50496 | 126.34207 | 2846 ft | 238 kts | 276° |
| 2026-04-20 13:34 | 37.50537 | 126.32093 | 3436 ft | 244 kts | 276° |
| 2026-04-20 13:34 | 37.50575 | 126.29946 | 4106 ft | 246 kts | 277° |
| 2026-04-20 13:34 | 37.50613 | 126.27783 | 4828 ft | 247 kts | 278° |
| 2026-04-20 13:34 | 37.50654 | 126.25622 | 5561 ft | 246 kts | 279° |
| 2026-04-20 13:35 | 37.50701 | 126.23470 | 6290 ft | 245 kts | 280° |
| 2026-04-20 13:35 | 37.50699 | 126.21340 | 6960 ft | 250 kts | 270° |
| 2026-04-20 13:35 | 37.50133 | 126.19212 | 7598 ft | 267 kts | 248° |
| 2026-04-20 13:35 | 37.48826 | 126.17451 | 8248 ft | 287 kts | 222° |
| 2026-04-20 13:36 | 37.46960 | 126.16380 | 8914 ft | 298 kts | 209° |
| 2026-04-20 13:36 | 37.45009 | 126.15479 | 9615 ft | 299 kts | 208° |
| 2026-04-20 13:36 | 37.42928 | 126.14985 | 10258 ft | 314 kts | 188° |
| 2026-04-20 13:36 | 37.40722 | 126.15411 | 10802 ft | 330 kts | 166° |
| 2026-04-20 13:37 | 37.38666 | 126.16824 | 11171 ft | 350 kts | 142° |
| 2026-04-20 13:37 | 37.36936 | 126.19105 | 11307 ft | 370 kts | 132° |
| 2026-04-20 13:37 | 37.35214 | 126.21609 | 11440 ft | 387 kts | 131° |
| 2026-04-20 13:37 | 37.33417 | 126.24226 | 11558 ft | 404 kts | 132° |
| 2026-04-20 13:38 | 37.31537 | 126.26952 | 11704 ft | 420 kts | 132° |
| 2026-04-20 13:38 | 37.29581 | 126.29766 | 11815 ft | 435 kts | 132° |
| 2026-04-20 13:38 | 37.27554 | 126.32667 | 12090 ft | 445 kts | 133° |
| 2026-04-20 13:38 | 37.25501 | 126.35592 | 12563 ft | 449 kts | 133° |
| 2026-04-20 13:39 | 37.23424 | 126.38545 | 13088 ft | 452 kts | 133° |
| 2026-04-20 13:39 | 37.21254 | 126.41406 | 13610 ft | 454 kts | 140° |
| 2026-04-20 13:39 | 37.18766 | 126.43844 | 14110 ft | 453 kts | 150° |
| 2026-04-20 13:39 | 37.16025 | 126.45762 | 14589 ft | 450 kts | 160° |
| 2026-04-20 13:40 | 37.13127 | 126.47211 | 15085 ft | 449 kts | 165° |
| 2026-04-20 13:40 | 37.10231 | 126.48582 | 15600 ft | 450 kts | 165° |
| 2026-04-20 13:40 | 37.07299 | 126.49974 | 16107 ft | 452 kts | 165° |
| 2026-04-20 13:40 | 37.04356 | 126.51365 | 16593 ft | 452 kts | 167° |
| 2026-04-20 13:41 | 37.01347 | 126.52455 | 17048 ft | 449 kts | 172° |
| 2026-04-20 13:41 | 36.98319 | 126.53455 | 17500 ft | 451 kts | 172° |
| 2026-04-20 13:41 | 36.95282 | 126.54456 | 17948 ft | 452 kts | 173° |
| 2026-04-20 13:41 | 36.92237 | 126.55458 | 18403 ft | 454 kts | 173° |
| 2026-04-20 13:42 | 36.89178 | 126.56466 | 18780 ft | 456 kts | 173° |
| 2026-04-20 13:42 | 36.83013 | 126.58497 | 19396 ft | 461 kts | 174° |
| 2026-04-20 13:42 | 36.79903 | 126.59520 | 19730 ft | 463 kts | 174° |
| 2026-04-20 13:43 | 36.76783 | 126.60542 | 20076 ft | 465 kts | 175° |
| 2026-04-20 13:43 | 36.73644 | 126.61569 | 20438 ft | 467 kts | 175° |
| 2026-04-20 13:43 | 36.70490 | 126.62605 | 20757 ft | 470 kts | 175° |
| 2026-04-20 13:43 | 36.67329 | 126.63661 | 21092 ft | 472 kts | 175° |
| 2026-04-20 13:44 | 36.64152 | 126.64737 | 21424 ft | 474 kts | 175° |
| 2026-04-20 13:44 | 36.60960 | 126.65823 | 21700 ft | 476 kts | 175° |
| 2026-04-20 13:44 | 36.57760 | 126.66908 | 22022 ft | 478 kts | 176° |
| 2026-04-20 13:44 | 36.54547 | 126.67991 | 22339 ft | 479 kts | 176° |
| 2026-04-20 13:45 | 36.51321 | 126.69070 | 22653 ft | 481 kts | 176° |
| 2026-04-20 13:45 | 36.48084 | 126.70148 | 22961 ft | 482 kts | 176° |
| 2026-04-20 13:45 | 36.44838 | 126.71228 | 23251 ft | 484 kts | 177° |
| 2026-04-20 13:45 | 36.41579 | 126.72312 | 23545 ft | 486 kts | 177° |
| 2026-04-20 13:46 | 36.38312 | 126.73401 | 23795 ft | 487 kts | 176° |
| 2026-04-20 13:46 | 36.35036 | 126.74496 | 24060 ft | 488 kts | 176° |
| 2026-04-20 13:46 | 36.31749 | 126.75602 | 24279 ft | 490 kts | 176° |
| 2026-04-20 13:46 | 36.28448 | 126.76719 | 24540 ft | 492 kts | 176° |
| 2026-04-20 13:47 | 36.25143 | 126.77840 | 24836 ft | 492 kts | 176° |
| 2026-04-20 13:47 | 36.21845 | 126.78959 | 25171 ft | 492 kts | 176° |
| 2026-04-20 13:47 | 36.18544 | 126.80055 | 25492 ft | 488 kts | 179° |
| 2026-04-20 13:47 | 36.15243 | 126.80738 | 25738 ft | 474 kts | 187° |
| 2026-04-20 13:48 | 36.13082 | 126.80878 | 25966 ft | 465 kts | 192° |
| 2026-04-20 13:48 | 36.09900 | 126.80671 | 26314 ft | 454 kts | 198° |
| 2026-04-20 13:48 | 36.06750 | 126.80315 | 26639 ft | 454 kts | 198° |
| 2026-04-20 13:48 | 36.03602 | 126.79967 | 26972 ft | 454 kts | 198° |
| 2026-04-20 13:49 | 36.00461 | 126.79624 | 27302 ft | 453 kts | 198° |
| 2026-04-20 13:49 | 35.97313 | 126.79284 | 27580 ft | 453 kts | 197° |
| 2026-04-20 13:49 | 35.94181 | 126.78947 | 27941 ft | 452 kts | 197° |
| 2026-04-20 13:49 | 35.91051 | 126.78611 | 28278 ft | 451 kts | 197° |
| 2026-04-20 13:50 | 35.87925 | 126.78276 | 28604 ft | 451 kts | 197° |
| 2026-04-20 13:50 | 35.84843 | 126.77940 | 28932 ft | 450 kts | 198° |
| 2026-04-20 13:50 | 35.81724 | 126.77600 | 29246 ft | 450 kts | 198° |
| 2026-04-20 13:50 | 35.78609 | 126.77262 | 29526 ft | 449 kts | 197° |
| 2026-04-20 13:51 | 35.75493 | 126.76925 | 29818 ft | 450 kts | 197° |
| 2026-04-20 13:51 | 35.72333 | 126.76585 | 30124 ft | 449 kts | 197° |
| 2026-04-20 13:51 | 35.69258 | 126.76253 | 30389 ft | 449 kts | 198° |
| 2026-04-20 13:51 | 35.66146 | 126.75917 | 30649 ft | 448 kts | 198° |
| 2026-04-20 13:52 | 35.63041 | 126.75582 | 30920 ft | 448 kts | 198° |
| 2026-04-20 13:52 | 35.59940 | 126.75248 | 31191 ft | 447 kts | 198° |
| 2026-04-20 13:52 | 35.56845 | 126.74915 | 31367 ft | 447 kts | 197° |
| 2026-04-20 13:52 | 35.53745 | 126.74584 | 31679 ft | 445 kts | 198° |
| 2026-04-20 13:53 | 35.50665 | 126.74253 | 31921 ft | 445 kts | 198° |
| 2026-04-20 13:53 | 35.47585 | 126.73921 | 32100 ft | 446 kts | 198° |
| 2026-04-20 13:53 | 35.41374 | 126.73250 | 32148 ft | 450 kts | 198° |
| 2026-04-20 13:54 | 35.35119 | 126.72581 | 32147 ft | 451 kts | 197° |
| 2026-04-20 13:54 | 35.28860 | 126.71922 | 32147 ft | 452 kts | 197° |
| 2026-04-20 13:55 | 35.22591 | 126.71255 | 32151 ft | 452 kts | 197° |
| 2026-04-20 13:55 | 35.16331 | 126.70582 | 32120 ft | 452 kts | 196° |
| 2026-04-20 13:56 | 35.10095 | 126.69914 | 32133 ft | 452 kts | 196° |
| 2026-04-20 13:56 | 35.03820 | 126.69244 | 32141 ft | 453 kts | 196° |
| 2026-04-20 13:57 | 34.97542 | 126.68581 | 32146 ft | 453 kts | 196° |
| 2026-04-20 13:57 | 34.91265 | 126.67923 | 32148 ft | 453 kts | 196° |
| 2026-04-20 13:58 | 34.84989 | 126.67256 | 32151 ft | 452 kts | 196° |
| 2026-04-20 13:58 | 34.78709 | 126.66591 | 32125 ft | 453 kts | 196° |
| 2026-04-20 13:59 | 34.72429 | 126.65939 | 32144 ft | 453 kts | 196° |
| 2026-04-20 13:59 | 34.66157 | 126.65275 | 32146 ft | 452 kts | 196° |
| 2026-04-20 14:00 | 34.59887 | 126.64612 | 32112 ft | 453 kts | 195° |
| 2026-04-20 14:00 | 34.53602 | 126.63962 | 32122 ft | 453 kts | 195° |
| 2026-04-20 14:01 | 34.47305 | 126.63311 | 32129 ft | 454 kts | 195° |
| 2026-04-20 14:01 | 34.41011 | 126.62647 | 32132 ft | 454 kts | 195° |
| 2026-04-20 14:02 | 34.34753 | 126.61986 | 32132 ft | 454 kts | 195° |
| 2026-04-20 14:02 | 34.28454 | 126.61331 | 32144 ft | 454 kts | 195° |
| 2026-04-20 14:03 | 34.22154 | 126.60674 | 32147 ft | 454 kts | 195° |
| 2026-04-20 14:03 | 34.15866 | 126.60017 | 32113 ft | 454 kts | 194° |
| 2026-04-20 14:04 | 34.09573 | 126.59361 | 32122 ft | 454 kts | 194° |
| 2026-04-20 14:04 | 34.03271 | 126.58703 | 32135 ft | 455 kts | 194° |
| 2026-04-20 14:05 | 33.96964 | 126.58038 | 32115 ft | 455 kts | 194° |
| 2026-04-20 14:05 | 33.90663 | 126.57390 | 32131 ft | 455 kts | 194° |
| 2026-04-20 14:06 | 33.84391 | 126.56571 | 32139 ft | 446 kts | 201° |
| 2026-04-20 14:06 | 33.81445 | 126.55571 | 32139 ft | 435 kts | 209° |
| 2026-04-20 14:06 | 33.78599 | 126.54324 | 32118 ft | 435 kts | 208° |
| 2026-04-20 14:07 | 33.72904 | 126.51849 | 32156 ft | 435 kts | 208° |
| 2026-04-20 14:07 | 33.67243 | 126.49397 | 32182 ft | 435 kts | 208° |
| 2026-04-20 14:08 | 33.61544 | 126.46934 | 32174 ft | 435 kts | 208° |
| 2026-04-20 14:08 | 33.55850 | 126.44470 | 32164 ft | 435 kts | 208° |
| 2026-04-20 14:09 | 33.50157 | 126.42012 | 32173 ft | 435 kts | 208° |
| 2026-04-20 14:09 | 33.44469 | 126.39560 | 32175 ft | 435 kts | 208° |
| 2026-04-20 14:10 | 33.38773 | 126.37111 | 32149 ft | 435 kts | 207° |
| 2026-04-20 14:10 | 33.33072 | 126.34665 | 32154 ft | 435 kts | 207° |
| 2026-04-20 14:11 | 33.27375 | 126.32223 | 32151 ft | 435 kts | 207° |
| 2026-04-20 14:11 | 33.21669 | 126.29782 | 32123 ft | 435 kts | 207° |
| 2026-04-20 14:12 | 33.16020 | 126.27365 | 32133 ft | 435 kts | 207° |
| 2026-04-20 14:12 | 33.10329 | 126.24927 | 32158 ft | 435 kts | 207° |
| 2026-04-20 14:13 | 33.04634 | 126.22498 | 32159 ft | 435 kts | 207° |
| 2026-04-20 14:13 | 32.98936 | 126.20077 | 32156 ft | 434 kts | 207° |
| 2026-04-20 14:14 | 32.93254 | 126.17636 | 32155 ft | 434 kts | 208° |
| 2026-04-20 14:14 | 32.87565 | 126.15185 | 32154 ft | 434 kts | 208° |
| 2026-04-20 14:15 | 32.81880 | 126.12746 | 32135 ft | 434 kts | 207° |
| 2026-04-20 14:15 | 32.76191 | 126.10313 | 32137 ft | 435 kts | 207° |
| 2026-04-20 14:16 | 32.70487 | 126.07887 | 32142 ft | 435 kts | 207° |
| 2026-04-20 14:16 | 32.64789 | 126.05453 | 32126 ft | 435 kts | 207° |
| 2026-04-20 14:17 | 32.59116 | 126.03034 | 32128 ft | 436 kts | 207° |
| 2026-04-20 14:17 | 32.53407 | 126.00608 | 32134 ft | 436 kts | 207° |
| 2026-04-20 14:18 | 32.47678 | 125.98175 | 32117 ft | 436 kts | 206° |
| 2026-04-20 14:18 | 32.41956 | 125.95748 | 32129 ft | 437 kts | 207° |
| 2026-04-20 14:19 | 32.36266 | 125.93338 | 32141 ft | 437 kts | 206° |
| 2026-04-20 14:19 | 32.30540 | 125.90921 | 32150 ft | 437 kts | 206° |
| 2026-04-20 14:20 | 32.24810 | 125.88502 | 32137 ft | 437 kts | 206° |
| 2026-04-20 14:20 | 32.19081 | 125.86082 | 32140 ft | 437 kts | 206° |
| 2026-04-20 14:21 | 32.13348 | 125.83658 | 32151 ft | 437 kts | 206° |
| 2026-04-20 14:21 | 32.07620 | 125.81229 | 32130 ft | 435 kts | 210° |
| 2026-04-20 14:22 | 32.02686 | 125.77441 | 32127 ft | 418 kts | 230° |
| 2026-04-20 14:22 | 31.99415 | 125.71940 | 32134 ft | 408 kts | 248° |
| 2026-04-20 14:23 | 31.97770 | 125.65591 | 32139 ft | 406 kts | 256° |
| 2026-04-20 14:23 | 31.96338 | 125.59137 | 32140 ft | 407 kts | 256° |
| 2026-04-20 14:24 | 31.94894 | 125.52692 | 32129 ft | 407 kts | 256° |
| 2026-04-20 14:24 | 31.93439 | 125.46243 | 32145 ft | 407 kts | 256° |
| 2026-04-20 14:25 | 31.91994 | 125.39837 | 32157 ft | 407 kts | 256° |
| 2026-04-20 14:25 | 31.90554 | 125.33386 | 32163 ft | 407 kts | 256° |
| 2026-04-20 14:26 | 31.89111 | 125.26947 | 32168 ft | 407 kts | 256° |
| 2026-04-20 14:26 | 31.87655 | 125.20509 | 32176 ft | 407 kts | 256° |
| 2026-04-20 14:27 | 31.86203 | 125.14086 | 32179 ft | 406 kts | 256° |
| 2026-04-20 14:27 | 31.84746 | 125.07665 | 32158 ft | 406 kts | 256° |
| 2026-04-20 14:28 | 31.83286 | 125.01242 | 32167 ft | 406 kts | 256° |
| 2026-04-20 14:28 | 31.81848 | 124.94823 | 32167 ft | 406 kts | 256° |
| 2026-04-20 14:29 | 31.80465 | 124.88372 | 32171 ft | 406 kts | 256° |
| 2026-04-20 14:29 | 31.79081 | 124.81935 | 32181 ft | 406 kts | 256° |
| 2026-04-20 14:30 | 31.77686 | 124.75494 | 32179 ft | 406 kts | 256° |
| 2026-04-20 14:30 | 31.76288 | 124.69071 | 32177 ft | 406 kts | 256° |
| 2026-04-20 14:31 | 31.74896 | 124.62690 | 32184 ft | 406 kts | 256° |
| 2026-04-20 14:31 | 31.73486 | 124.56268 | 32186 ft | 406 kts | 256° |
| 2026-04-20 14:32 | 31.72077 | 124.49848 | 32186 ft | 406 kts | 256° |
| 2026-04-20 14:32 | 31.70660 | 124.43428 | 32186 ft | 406 kts | 256° |
| 2026-04-20 14:33 | 31.69243 | 124.37019 | 32195 ft | 406 kts | 256° |
| 2026-04-20 14:33 | 31.67831 | 124.30603 | 32192 ft | 406 kts | 256° |
| 2026-04-20 14:34 | 31.66411 | 124.24196 | 32163 ft | 406 kts | 256° |
| 2026-04-20 14:34 | 31.65223 | 124.18863 | 32187 ft | 406 kts | 255° |
| 2026-04-20 14:35 | 31.63784 | 124.12460 | 32187 ft | 406 kts | 255° |
| 2026-04-20 14:35 | 31.62355 | 124.06055 | 32200 ft | 406 kts | 256° |
| 2026-04-20 14:36 | 31.60927 | 123.99652 | 32194 ft | 406 kts | 255° |
| 2026-04-20 14:36 | 31.59504 | 123.93248 | 32197 ft | 406 kts | 256° |
| 2026-04-20 14:37 | 31.58105 | 123.86819 | 32202 ft | 406 kts | 256° |
| 2026-04-20 14:37 | 31.56708 | 123.80407 | 32202 ft | 406 kts | 256° |
| 2026-04-20 14:38 | 31.55302 | 123.74001 | 32206 ft | 406 kts | 256° |
| 2026-04-20 14:38 | 31.53896 | 123.67595 | 32211 ft | 406 kts | 256° |
| 2026-04-20 14:39 | 31.52492 | 123.61222 | 32197 ft | 406 kts | 256° |
| 2026-04-20 14:39 | 31.51069 | 123.54811 | 32208 ft | 406 kts | 256° |
| 2026-04-20 14:40 | 31.49650 | 123.48399 | 32202 ft | 406 kts | 256° |
| 2026-04-20 14:40 | 31.48393 | 123.41943 | 32203 ft | 406 kts | 258° |
| 2026-04-20 14:41 | 31.47220 | 123.35462 | 32176 ft | 406 kts | 258° |
| 2026-04-20 14:41 | 31.46021 | 123.29000 | 32197 ft | 406 kts | 258° |
| 2026-04-20 14:42 | 31.44793 | 123.22553 | 32206 ft | 405 kts | 257° |
| 2026-04-20 14:42 | 31.43563 | 123.16119 | 32202 ft | 405 kts | 257° |
| 2026-04-20 14:43 | 31.42325 | 123.09667 | 32199 ft | 406 kts | 257° |
| 2026-04-20 14:43 | 31.41080 | 123.03216 | 32196 ft | 406 kts | 257° |
| 2026-04-20 14:44 | 31.39825 | 122.96768 | 32197 ft | 407 kts | 257° |
| 2026-04-20 14:44 | 31.38580 | 122.90350 | 32176 ft | 407 kts | 258° |
| 2026-04-20 14:45 | 31.37331 | 122.83897 | 32194 ft | 407 kts | 258° |
| 2026-04-20 14:45 | 31.36070 | 122.77428 | 32193 ft | 407 kts | 258° |
| 2026-04-20 14:46 | 31.34826 | 122.70957 | 32197 ft | 408 kts | 258° |
| 2026-04-20 14:46 | 31.33600 | 122.64485 | 32200 ft | 408 kts | 258° |
| 2026-04-20 14:47 | 31.32370 | 122.58012 | 32206 ft | 408 kts | 258° |
| 2026-04-20 14:48 | 31.30502 | 122.48288 | 32197 ft | 408 kts | 258° |
| 2026-04-20 14:48 | 31.29253 | 122.41809 | 32194 ft | 409 kts | 258° |
| 2026-04-20 14:49 | 31.28033 | 122.35324 | 32190 ft | 408 kts | 259° |
| 2026-04-20 14:49 | 31.26820 | 122.28839 | 32198 ft | 409 kts | 258° |
| 2026-04-20 14:50 | 31.25595 | 122.22348 | 32196 ft | 409 kts | 258° |
| 2026-04-20 14:50 | 31.24361 | 122.15862 | 32198 ft | 409 kts | 258° |
| 2026-04-20 14:51 | 31.23123 | 122.09371 | 32197 ft | 409 kts | 258° |
| 2026-04-20 14:51 | 31.21899 | 122.02923 | 32198 ft | 410 kts | 258° |
| 2026-04-20 14:52 | 31.20660 | 121.96427 | 32192 ft | 410 kts | 258° |
| 2026-04-20 14:52 | 31.19408 | 121.89924 | 32171 ft | 410 kts | 258° |
| 2026-04-20 14:53 | 31.18148 | 121.83424 | 32180 ft | 410 kts | 258° |
| 2026-04-20 14:53 | 31.17766 | 121.76819 | 32184 ft | 410 kts | 276° |
| 2026-04-20 14:54 | 31.19162 | 121.70356 | 32184 ft | 412 kts | 284° |
| 2026-04-20 14:54 | 31.20772 | 121.63923 | 32181 ft | 412 kts | 284° |
| 2026-04-20 14:55 | 31.22346 | 121.57476 | 32182 ft | 413 kts | 283° |
| 2026-04-20 14:55 | 31.23914 | 121.51023 | 32171 ft | 413 kts | 283° |
| 2026-04-20 14:56 | 31.25492 | 121.44607 | 32168 ft | 413 kts | 284° |
| 2026-04-20 14:56 | 31.27083 | 121.38151 | 32166 ft | 413 kts | 283° |
| 2026-04-20 14:57 | 31.28685 | 121.31699 | 32165 ft | 414 kts | 285° |
| 2026-04-20 14:57 | 31.30585 | 121.25332 | 32169 ft | 415 kts | 288° |
| 2026-04-20 14:58 | 31.32639 | 121.19025 | 32181 ft | 415 kts | 288° |
| 2026-04-20 14:58 | 31.34662 | 121.12704 | 32185 ft | 415 kts | 287° |
| 2026-04-20 14:59 | 31.36618 | 121.06361 | 32190 ft | 414 kts | 287° |
| 2026-04-20 14:59 | 31.38538 | 120.99998 | 32194 ft | 414 kts | 287° |
| 2026-04-20 15:00 | 31.40450 | 120.93626 | 32196 ft | 415 kts | 286° |
| 2026-04-20 15:00 | 31.42359 | 120.87299 | 32194 ft | 415 kts | 287° |
| 2026-04-20 15:01 | 31.44287 | 120.80930 | 32197 ft | 415 kts | 287° |
| 2026-04-20 15:01 | 31.46208 | 120.74557 | 32196 ft | 415 kts | 287° |
| 2026-04-20 15:02 | 31.48129 | 120.68165 | 32196 ft | 415 kts | 287° |
| 2026-04-20 15:02 | 31.50045 | 120.61784 | 32197 ft | 415 kts | 287° |
| 2026-04-20 15:03 | 31.51957 | 120.55396 | 32197 ft | 415 kts | 286° |
| 2026-04-20 15:03 | 31.53866 | 120.49012 | 32194 ft | 415 kts | 286° |
| 2026-04-20 15:04 | 31.55777 | 120.42624 | 32194 ft | 415 kts | 286° |
| 2026-04-20 15:04 | 31.57680 | 120.36232 | 32195 ft | 415 kts | 286° |
| 2026-04-20 15:05 | 31.59053 | 120.29752 | 32192 ft | 411 kts | 273° |
| 2026-04-20 15:05 | 31.59388 | 120.23055 | 32189 ft | 411 kts | 272° |
| 2026-04-20 15:06 | 31.59716 | 120.16350 | 32189 ft | 412 kts | 272° |
| 2026-04-20 15:06 | 31.60044 | 120.09642 | 32194 ft | 412 kts | 272° |
| 2026-04-20 15:07 | 31.60369 | 120.02927 | 32175 ft | 413 kts | 272° |
| 2026-04-20 15:07 | 31.60695 | 119.96197 | 32186 ft | 413 kts | 272° |
| 2026-04-20 15:08 | 31.61010 | 119.89460 | 32183 ft | 413 kts | 272° |
| 2026-04-20 15:08 | 31.61324 | 119.82727 | 32184 ft | 413 kts | 272° |
| 2026-04-20 15:09 | 31.61638 | 119.75992 | 32171 ft | 414 kts | 272° |
| 2026-04-20 15:09 | 31.61947 | 119.69239 | 32169 ft | 415 kts | 272° |
| 2026-04-20 15:10 | 31.62258 | 119.62485 | 32170 ft | 415 kts | 272° |
| 2026-04-20 15:10 | 31.62586 | 119.55721 | 32163 ft | 415 kts | 272° |
| 2026-04-20 15:11 | 31.62923 | 119.48951 | 32172 ft | 416 kts | 272° |
| 2026-04-20 15:11 | 31.63246 | 119.42218 | 32168 ft | 416 kts | 272° |
| 2026-04-20 15:12 | 31.63556 | 119.35429 | 32172 ft | 417 kts | 271° |
| 2026-04-20 15:12 | 31.63860 | 119.28632 | 32165 ft | 417 kts | 272° |
| 2026-04-20 15:13 | 31.64172 | 119.21839 | 32164 ft | 417 kts | 271° |
| 2026-04-20 15:13 | 31.64471 | 119.15031 | 32175 ft | 417 kts | 271° |
| 2026-04-20 15:14 | 31.64794 | 119.08229 | 32172 ft | 418 kts | 272° |
| 2026-04-20 15:14 | 31.65167 | 119.01426 | 32201 ft | 418 kts | 273° |
| 2026-04-20 15:15 | 31.65680 | 118.94635 | 32207 ft | 418 kts | 274° |
| 2026-04-20 15:15 | 31.66238 | 118.87858 | 32202 ft | 417 kts | 274° |
| 2026-04-20 15:16 | 31.66767 | 118.81075 | 32210 ft | 417 kts | 273° |
| 2026-04-20 15:16 | 31.67262 | 118.74288 | 32205 ft | 417 kts | 273° |
| 2026-04-20 15:17 | 31.67751 | 118.67502 | 32192 ft | 417 kts | 273° |
| 2026-04-20 15:17 | 31.68248 | 118.60719 | 32188 ft | 417 kts | 273° |
| 2026-04-20 15:18 | 31.68745 | 118.53939 | 32188 ft | 417 kts | 273° |
| 2026-04-20 15:18 | 31.69231 | 118.47165 | 32180 ft | 416 kts | 273° |
| 2026-04-20 15:19 | 31.69709 | 118.40392 | 32178 ft | 416 kts | 273° |
| 2026-04-20 15:19 | 31.70189 | 118.33618 | 32258 ft | 416 kts | 273° |
| 2026-04-20 15:20 | 31.70669 | 118.26857 | 32271 ft | 415 kts | 273° |
| 2026-04-20 15:20 | 31.71146 | 118.20095 | 32269 ft | 415 kts | 273° |
| 2026-04-20 15:21 | 31.71541 | 118.14474 | 32271 ft | 415 kts | 273° |
| 2026-04-20 15:21 | 31.71041 | 118.06672 | 32281 ft | 414 kts | 257° |
| 2026-04-20 15:22 | 31.69669 | 118.00076 | 32249 ft | 416 kts | 257° |
| 2026-04-20 15:22 | 31.68542 | 117.94583 | 32250 ft | 417 kts | 257° |
| 2026-04-20 15:23 | 31.67185 | 117.87960 | 32253 ft | 417 kts | 257° |
| 2026-04-20 15:23 | 31.65813 | 117.81332 | 32257 ft | 418 kts | 257° |
| 2026-04-20 15:24 | 31.64431 | 117.74701 | 32261 ft | 418 kts | 257° |
| 2026-04-20 15:24 | 31.63048 | 117.68068 | 32268 ft | 419 kts | 257° |
| 2026-04-20 15:25 | 31.61659 | 117.61432 | 32271 ft | 419 kts | 257° |
| 2026-04-20 15:25 | 31.60291 | 117.54784 | 32275 ft | 419 kts | 258° |
| 2026-04-20 15:26 | 31.59101 | 117.48088 | 32265 ft | 419 kts | 259° |
| 2026-04-20 15:26 | 31.57961 | 117.41374 | 32264 ft | 420 kts | 259° |
| 2026-04-20 15:27 | 31.56780 | 117.34657 | 32269 ft | 421 kts | 258° |
| 2026-04-20 15:27 | 31.55570 | 117.27934 | 32274 ft | 421 kts | 258° |
| 2026-04-20 15:28 | 31.54380 | 117.21246 | 32279 ft | 422 kts | 258° |
| 2026-04-20 15:28 | 31.53193 | 117.14518 | 32283 ft | 422 kts | 258° |
| 2026-04-20 15:29 | 31.52004 | 117.07775 | 32290 ft | 422 kts | 258° |
| 2026-04-20 15:29 | 31.50805 | 117.01033 | 32286 ft | 422 kts | 258° |
| 2026-04-20 15:30 | 31.49599 | 116.94300 | 32287 ft | 422 kts | 258° |
| 2026-04-20 15:30 | 31.48346 | 116.87576 | 32271 ft | 422 kts | 254° |
| 2026-04-20 15:31 | 31.45798 | 116.81392 | 32267 ft | 426 kts | 236° |
| 2026-04-20 15:31 | 31.42184 | 116.75854 | 32266 ft | 428 kts | 235° |
| 2026-04-20 15:32 | 31.38567 | 116.70315 | 32279 ft | 429 kts | 235° |
| 2026-04-20 15:32 | 31.34943 | 116.64771 | 32281 ft | 429 kts | 235° |
| 2026-04-20 15:33 | 31.31307 | 116.59229 | 32275 ft | 429 kts | 235° |
| 2026-04-20 15:33 | 31.27667 | 116.53689 | 32275 ft | 430 kts | 235° |
| 2026-04-20 15:34 | 31.24024 | 116.48156 | 32277 ft | 430 kts | 235° |
| 2026-04-20 15:34 | 31.20389 | 116.42614 | 32275 ft | 429 kts | 235° |
| 2026-04-20 15:35 | 31.16764 | 116.37113 | 32276 ft | 430 kts | 234° |
| 2026-04-20 15:35 | 31.13104 | 116.31586 | 32272 ft | 430 kts | 234° |
| 2026-04-20 15:36 | 31.09455 | 116.26071 | 32277 ft | 429 kts | 234° |
| 2026-04-20 15:36 | 31.05805 | 116.20551 | 32266 ft | 430 kts | 234° |
| 2026-04-20 15:37 | 31.02156 | 116.15032 | 32262 ft | 430 kts | 235° |
| 2026-04-20 15:37 | 30.98495 | 116.09516 | 32254 ft | 430 kts | 234° |
| 2026-04-20 15:38 | 30.94828 | 116.04008 | 32247 ft | 430 kts | 234° |
| 2026-04-20 15:38 | 30.91180 | 115.98528 | 32221 ft | 430 kts | 234° |
| 2026-04-20 15:39 | 30.87504 | 115.93014 | 32235 ft | 430 kts | 234° |
| 2026-04-20 15:39 | 30.83835 | 115.87503 | 32223 ft | 431 kts | 234° |
| 2026-04-20 15:40 | 30.80191 | 115.81979 | 32224 ft | 430 kts | 234° |
| 2026-04-20 15:40 | 30.76551 | 115.76436 | 32215 ft | 430 kts | 234° |
| 2026-04-20 15:41 | 30.72913 | 115.70914 | 32205 ft | 431 kts | 234° |
| 2026-04-20 15:41 | 30.69282 | 115.65434 | 32205 ft | 431 kts | 234° |
| 2026-04-20 15:42 | 30.65618 | 115.59919 | 32205 ft | 431 kts | 234° |
| 2026-04-20 15:42 | 30.61962 | 115.54399 | 32200 ft | 431 kts | 234° |
| 2026-04-20 15:43 | 30.58303 | 115.48884 | 32194 ft | 431 kts | 234° |
| 2026-04-20 15:43 | 30.54637 | 115.43367 | 32191 ft | 431 kts | 234° |
| 2026-04-20 15:44 | 30.50972 | 115.37861 | 32177 ft | 431 kts | 234° |
| 2026-04-20 15:44 | 30.47309 | 115.32360 | 32188 ft | 431 kts | 235° |
| 2026-04-20 15:45 | 30.44733 | 115.26205 | 32178 ft | 429 kts | 255° |
| 2026-04-20 15:45 | 30.44276 | 115.19336 | 32175 ft | 432 kts | 274° |
| 2026-04-20 15:46 | 30.45001 | 115.12420 | 32175 ft | 432 kts | 275° |
| 2026-04-20 15:46 | 30.45713 | 115.05493 | 32174 ft | 433 kts | 275° |
| 2026-04-20 15:47 | 30.46423 | 114.98557 | 32172 ft | 434 kts | 275° |
| 2026-04-20 15:47 | 30.47138 | 114.91611 | 32168 ft | 434 kts | 275° |
| 2026-04-20 15:48 | 30.47850 | 114.84651 | 32168 ft | 435 kts | 275° |
| 2026-04-20 15:48 | 30.48552 | 114.77682 | 32168 ft | 436 kts | 274° |
| 2026-04-20 15:49 | 30.49256 | 114.70698 | 32171 ft | 436 kts | 274° |
| 2026-04-20 15:49 | 30.49959 | 114.63750 | 32174 ft | 436 kts | 275° |
| 2026-04-20 15:50 | 30.50662 | 114.56754 | 32177 ft | 437 kts | 274° |
| 2026-04-20 15:50 | 30.51353 | 114.49753 | 32179 ft | 437 kts | 274° |
| 2026-04-20 15:51 | 30.52040 | 114.42748 | 32182 ft | 437 kts | 274° |
| 2026-04-20 15:51 | 30.52724 | 114.35741 | 32187 ft | 437 kts | 274° |
| 2026-04-20 15:52 | 30.53409 | 114.28731 | 32187 ft | 438 kts | 274° |
| 2026-04-20 15:52 | 30.54093 | 114.21713 | 32188 ft | 438 kts | 274° |
| 2026-04-20 15:53 | 30.55096 | 114.11180 | 32176 ft | 438 kts | 274° |
| 2026-04-20 15:53 | 30.55763 | 114.04163 | 32174 ft | 438 kts | 274° |
| 2026-04-20 15:54 | 30.56434 | 113.97174 | 32175 ft | 438 kts | 274° |
| 2026-04-20 15:54 | 30.57090 | 113.90141 | 32175 ft | 438 kts | 273° |
| 2026-04-20 15:55 | 30.56655 | 113.83168 | 32176 ft | 434 kts | 254° |
| 2026-04-20 15:55 | 30.54171 | 113.76841 | 32172 ft | 433 kts | 237° |
| 2026-04-20 15:56 | 30.50906 | 113.70972 | 32182 ft | 433 kts | 237° |
| 2026-04-20 15:56 | 30.47648 | 113.65085 | 32179 ft | 434 kts | 237° |
| 2026-04-20 15:57 | 30.44381 | 113.59208 | 32190 ft | 434 kts | 237° |
| 2026-04-20 15:57 | 30.41108 | 113.53333 | 32194 ft | 434 kts | 237° |
| 2026-04-20 15:58 | 30.37831 | 113.47458 | 32167 ft | 435 kts | 237° |
| 2026-04-20 15:58 | 30.34539 | 113.41569 | 32170 ft | 436 kts | 237° |
| 2026-04-20 15:59 | 30.31236 | 113.35667 | 32190 ft | 437 kts | 237° |
| 2026-04-20 15:59 | 30.27955 | 113.29801 | 32185 ft | 437 kts | 237° |
| 2026-04-20 16:00 | 30.24635 | 113.23893 | 32187 ft | 438 kts | 237° |
| 2026-04-20 16:00 | 30.21318 | 113.17984 | 32196 ft | 438 kts | 237° |
| 2026-04-20 16:01 | 30.18031 | 113.12036 | 32168 ft | 440 kts | 238° |
| 2026-04-20 16:01 | 30.14755 | 113.06056 | 32188 ft | 440 kts | 238° |
| 2026-04-20 16:02 | 30.11471 | 113.00092 | 32196 ft | 440 kts | 238° |
| 2026-04-20 16:02 | 30.08186 | 112.94135 | 32202 ft | 439 kts | 238° |
| 2026-04-20 16:03 | 30.04897 | 112.88195 | 32200 ft | 439 kts | 238° |
| 2026-04-20 16:03 | 30.01606 | 112.82257 | 32206 ft | 439 kts | 238° |
| 2026-04-20 16:04 | 29.98313 | 112.76320 | 32187 ft | 440 kts | 238° |
| 2026-04-20 16:04 | 29.95036 | 112.70422 | 32198 ft | 440 kts | 238° |
| 2026-04-20 16:05 | 29.91726 | 112.64469 | 32196 ft | 441 kts | 238° |
| 2026-04-20 16:05 | 29.88415 | 112.58523 | 32200 ft | 441 kts | 238° |
| 2026-04-20 16:06 | 29.85096 | 112.52578 | 32198 ft | 441 kts | 238° |
| 2026-04-20 16:06 | 29.81773 | 112.46637 | 32199 ft | 441 kts | 238° |
| 2026-04-20 16:07 | 29.78453 | 112.40704 | 32205 ft | 441 kts | 238° |
| 2026-04-20 16:07 | 29.75150 | 112.34814 | 32200 ft | 441 kts | 238° |
| 2026-04-20 16:08 | 29.71814 | 112.28881 | 32207 ft | 441 kts | 238° |
| 2026-04-20 16:08 | 29.68472 | 112.22975 | 32204 ft | 441 kts | 238° |
| 2026-04-20 16:09 | 29.65123 | 112.17076 | 32211 ft | 441 kts | 238° |
| 2026-04-20 16:09 | 29.61778 | 112.11170 | 32225 ft | 440 kts | 238° |
| 2026-04-20 16:10 | 29.58439 | 112.05280 | 32208 ft | 440 kts | 238° |
| 2026-04-20 16:10 | 29.55094 | 111.99399 | 32210 ft | 440 kts | 238° |
| 2026-04-20 16:11 | 29.51741 | 111.93516 | 32207 ft | 440 kts | 238° |
| 2026-04-20 16:11 | 29.48953 | 111.88631 | 32214 ft | 440 kts | 238° |
| 2026-04-20 16:12 | 29.45596 | 111.82756 | 32214 ft | 440 kts | 238° |
| 2026-04-20 16:12 | 29.42232 | 111.76877 | 32223 ft | 440 kts | 238° |
| 2026-04-20 16:13 | 29.38872 | 111.71011 | 32222 ft | 440 kts | 238° |
| 2026-04-20 16:13 | 29.35754 | 111.64998 | 32216 ft | 437 kts | 248° |
| 2026-04-20 16:14 | 29.34158 | 111.58344 | 32212 ft | 436 kts | 259° |
| 2026-04-20 16:14 | 29.32844 | 111.51555 | 32212 ft | 437 kts | 257° |
| 2026-04-20 16:15 | 29.32144 | 111.48224 | 32083 ft | 437 kts | 257° |
| 2026-04-20 16:15 | 29.31409 | 111.44790 | 31831 ft | 437 kts | 257° |
| 2026-04-20 16:15 | 29.30685 | 111.41399 | 31590 ft | 438 kts | 257° |
| 2026-04-20 16:15 | 29.29967 | 111.38007 | 31353 ft | 438 kts | 257° |
| 2026-04-20 16:16 | 29.29256 | 111.34610 | 31121 ft | 439 kts | 257° |
| 2026-04-20 16:16 | 29.28547 | 111.31202 | 30884 ft | 440 kts | 257° |
| 2026-04-20 16:16 | 29.27840 | 111.27788 | 30457 ft | 441 kts | 257° |
| 2026-04-20 16:16 | 29.27126 | 111.24340 | 29430 ft | 447 kts | 257° |
| 2026-04-20 16:17 | 29.26405 | 111.20868 | 28578 ft | 448 kts | 257° |
| 2026-04-20 16:17 | 29.25679 | 111.17382 | 27633 ft | 451 kts | 257° |
| 2026-04-20 16:17 | 29.24946 | 111.13867 | 26640 ft | 456 kts | 257° |
| 2026-04-20 16:17 | 29.24215 | 111.10362 | 25657 ft | 460 kts | 257° |
| 2026-04-20 16:18 | 29.23466 | 111.06779 | 24659 ft | 465 kts | 257° |
| 2026-04-20 16:18 | 29.22709 | 111.03166 | 23695 ft | 469 kts | 257° |
| 2026-04-20 16:18 | 29.21947 | 110.99536 | 22808 ft | 467 kts | 257° |
| 2026-04-20 16:18 | 29.21188 | 110.95937 | 22066 ft | 462 kts | 257° |
| 2026-04-20 16:19 | 29.20438 | 110.92393 | 21294 ft | 457 kts | 257° |
| 2026-04-20 16:19 | 29.19692 | 110.88874 | 20522 ft | 453 kts | 257° |
| 2026-04-20 16:19 | 29.18954 | 110.85387 | 19745 ft | 450 kts | 257° |
| 2026-04-20 16:19 | 29.18217 | 110.81909 | 18962 ft | 448 kts | 257° |
| 2026-04-20 16:20 | 29.17484 | 110.78457 | 18237 ft | 445 kts | 256° |
| 2026-04-20 16:20 | 29.16754 | 110.75034 | 17344 ft | 442 kts | 256° |
| 2026-04-20 16:20 | 29.16033 | 110.71659 | 16786 ft | 432 kts | 256° |
| 2026-04-20 16:20 | 29.15322 | 110.68338 | 16140 ft | 426 kts | 256° |
| 2026-04-20 16:21 | 29.14638 | 110.65145 | 15930 ft | 410 kts | 256° |
| 2026-04-20 16:21 | 29.13971 | 110.62035 | 15752 ft | 396 kts | 256° |
| 2026-04-20 16:21 | 29.13326 | 110.59032 | 15580 ft | 383 kts | 256° |
| 2026-04-20 16:21 | 29.12703 | 110.56132 | 15413 ft | 369 kts | 256° |
| 2026-04-20 16:22 | 29.12101 | 110.53329 | 15242 ft | 356 kts | 256° |
| 2026-04-20 16:22 | 29.11518 | 110.50626 | 15082 ft | 344 kts | 256° |
| 2026-04-20 16:22 | 29.10957 | 110.48025 | 14931 ft | 332 kts | 256° |
| 2026-04-20 16:22 | 29.10416 | 110.45505 | 14784 ft | 320 kts | 258° |
| 2026-04-20 16:23 | 29.10261 | 110.43023 | 14639 ft | 309 kts | 273° |
| 2026-04-20 16:23 | 29.10148 | 110.40628 | 14488 ft | 298 kts | 253° |
| 2026-04-20 16:23 | 29.09187 | 110.38542 | 14117 ft | 297 kts | 236° |
| 2026-04-20 16:23 | 29.08263 | 110.36502 | 13990 ft | 284 kts | 258° |
| 2026-04-20 16:24 | 29.07983 | 110.34316 | 13933 ft | 272 kts | 260° |
| 2026-04-20 16:24 | 29.07611 | 110.32210 | 13861 ft | 270 kts | 258° |
| 2026-04-20 16:24 | 29.07591 | 110.30083 | 13777 ft | 270 kts | 284° |
| 2026-04-20 16:24 | 29.08443 | 110.28179 | 13662 ft | 275 kts | 308° |
| 2026-04-20 16:25 | 29.09999 | 110.26842 | 13108 ft | 287 kts | 336° |
| 2026-04-20 16:25 | 29.11978 | 110.26423 | 12527 ft | 298 kts | 2° |
| 2026-04-20 16:25 | 29.14001 | 110.27042 | 11911 ft | 308 kts | 28° |
| 2026-04-20 16:25 | 29.15657 | 110.28576 | 11320 ft | 316 kts | 48° |
| 2026-04-20 16:26 | 29.16887 | 110.30669 | 10853 ft | 317 kts | 68° |
| 2026-04-20 16:26 | 29.17684 | 110.32987 | 10613 ft | 310 kts | 70° |
| 2026-04-20 16:26 | 29.18456 | 110.35266 | 10382 ft | 304 kts | 70° |
| 2026-04-20 16:26 | 29.19209 | 110.37501 | 10144 ft | 298 kts | 70° |
| 2026-04-20 16:27 | 29.19943 | 110.39697 | 9924 ft | 292 kts | 70° |
| 2026-04-20 16:27 | 29.20653 | 110.41835 | 9794 ft | 283 kts | 70° |
| 2026-04-20 16:27 | 29.22235 | 110.46606 | 9473 ft | 266 kts | 71° |
| 2026-04-20 16:27 | 29.24882 | 110.54629 | 8998 ft | 268 kts | 71° |
| 2026-04-20 16:28 | 29.27502 | 110.62550 | 8275 ft | 269 kts | 71° |
| 2026-04-20 16:28 | 29.28762 | 110.66593 | 7515 ft | 270 kts | 82° |
| 2026-04-20 16:28 | 29.28761 | 110.68667 | 7174 ft | 252 kts | 105° |
| 2026-04-20 16:28 | 29.28157 | 110.70483 | 6840 ft | 241 kts | 123° |
| 2026-04-20 16:29 | 29.27116 | 110.71944 | 6501 ft | 236 kts | 140° |
| 2026-04-20 16:29 | 29.25843 | 110.73122 | 6148 ft | 233 kts | 140° |
| 2026-04-20 16:29 | 29.24555 | 110.74161 | 5801 ft | 223 kts | 153° |
| 2026-04-20 16:29 | 29.23049 | 110.74574 | 5486 ft | 228 kts | 176° |
| 2026-04-20 16:30 | 29.21480 | 110.74207 | 5182 ft | 237 kts | 201° |
| 2026-04-20 16:30 | 29.20039 | 110.73250 | 4857 ft | 242 kts | 208° |
| 2026-04-20 16:30 | 29.18603 | 110.72251 | 4497 ft | 241 kts | 208° |
| 2026-04-20 16:30 | 29.17209 | 110.71231 | 4157 ft | 241 kts | 218° |
| 2026-04-20 16:31 | 29.16127 | 110.69795 | 3931 ft | 236 kts | 241° |
| 2026-04-20 16:31 | 29.15543 | 110.68048 | 3945 ft | 236 kts | 257° |
| 2026-04-20 16:31 | 29.15142 | 110.66229 | 3950 ft | 236 kts | 257° |
| 2026-04-20 16:31 | 29.14744 | 110.64412 | 3940 ft | 235 kts | 257° |
| 2026-04-20 16:32 | 29.14341 | 110.62587 | 3850 ft | 237 kts | 257° |
| 2026-04-20 16:32 | 29.13946 | 110.60806 | 3574 ft | 224 kts | 258° |
| 2026-04-20 16:32 | 29.13577 | 110.59143 | 3242 ft | 206 kts | 257° |
| 2026-04-20 16:32 | 29.13236 | 110.57605 | 2954 ft | 194 kts | 258° |
| 2026-04-20 16:33 | 29.12918 | 110.56169 | 2723 ft | 177 kts | 258° |
| 2026-04-20 16:33 | 29.12627 | 110.54858 | 2440 ft | 163 kts | 256° |
| 2026-04-20 16:33 | 29.12354 | 110.53627 | 2200 ft | 157 kts | 256° |
| 2026-04-20 16:33 | 29.12090 | 110.52434 | 1974 ft | 154 kts | 256° |
| 2026-04-20 16:34 | 29.11828 | 110.51255 | 1750 ft | 152 kts | 256° |
| 2026-04-20 16:34 | 29.11569 | 110.50086 | 1537 ft | 151 kts | 256° |
| 2026-04-20 16:34 | 29.11312 | 110.48922 | 1287 ft | 151 kts | 256° |
| 2026-04-20 16:34 | 29.11067 | 110.47760 | 1055 ft | 150 kts | 256° |
| 2026-04-20 16:35 | 29.10814 | 110.46605 | 901 ft | 150 kts | 256° |
| 2026-04-20 16:35 | 29.10541 | 110.45454 | 725 ft | 150 kts | 255° |
| 2026-04-20 16:35 | 29.10315 | 110.44431 | 704 ft | 99 kts | 256° |
| 2026-04-20 16:35 | 29.10204 | 110.43966 | 714 ft | 39 kts | 256° |
| 2026-04-20 16:36 | 29.10194 | 110.43739 | 717 ft | 25 kts | 278° |
| 2026-04-20 16:36 | 29.10253 | 110.43592 | 722 ft | 17 kts | 343° |
| 2026-04-20 16:36 | 29.10314 | 110.43677 | 721 ft | 16 kts | 73° |
| 2026-04-20 16:36 | 29.10345 | 110.43814 | 707 ft | 19 kts | 77° |
| 2026-04-20 16:37 | 29.10377 | 110.43970 | 712 ft | 21 kts | 77° |
| 2026-04-20 16:37 | 29.10391 | 110.44040 | 706 ft | 0 kts | 77° |
| 2026-04-20 16:37 | 29.10394 | 110.44046 | 707 ft | 2 kts | 61° |